Main page
METAR-TAF:

METAR-TAF

Airports :

Alice Springs Airport

Alice Springs, Australia

latitude: 23-48S, longitude: 133-53E, elevation: 545 m

Current weather observation

The report was made 18 minutes ago, at 18:00 UTC
Calm wind
Temperature 12°C
Humidity 38%
Pressure 1018 hPa
Visibility 10 km or more

METAR: YBAS 201800Z AUTO 00000KT 9999 // NCD 12/M02 Q1018

Time: 03:48 (18:18 UTC)

Forecast

The report was made 1 hour and 4 minutes ago, at 17:14 UTC
Forecast valid from 20 at 18 UTC to 21 at 18 UTC
Wind 9 kt from the East
Visibility 10 km or more
no clouds below 1500 m and no cumulonimbus

TAF: YBAS 201714Z 2018/2118 10009KT CAVOK

Weather observations and forecasts of more than 4000 airports (METAR and TAF reports).

The available stations are represented by yellow and red dots on the map.

Hover mouse over dot to see the name of the station.

Then click to see weather observations and forecasts.

To change the map : click on the green buttons with a black cross to zoom in, on the green button with a dash to zoom out, or on the green arrows for adjacent maps.


METAR-TAF: